sensor_id;sensor_type;location;lat;lon;timestamp;P1;durP1;ratioP1;P2;durP2;ratioP2
21733;SDS011;11029;47.820;10.534;2023-12-28T00:01:35;0.52;;;0.50;;
21733;SDS011;11029;47.820;10.534;2023-12-28T00:04:21;1.08;;;0.60;;
21733;SDS011;11029;47.820;10.534;2023-12-28T00:07:06;0.70;;;0.68;;
21733;SDS011;11029;47.820;10.534;2023-12-28T00:13:08;1.13;;;0.50;;
21733;SDS011;11029;47.820;10.534;2023-12-28T00:15:54;0.50;;;0.50;;
21733;SDS011;11029;47.820;10.534;2023-12-28T00:18:40;0.70;;;0.70;;
21733;SDS011;11029;47.820;10.534;2023-12-28T00:21:25;0.70;;;0.70;;
21733;SDS011;11029;47.820;10.534;2023-12-28T00:24:11;0.80;;;0.70;;
21733;SDS011;11029;47.820;10.534;2023-12-28T00:26:57;0.65;;;0.60;;
21733;SDS011;11029;47.820;10.534;2023-12-28T00:29:42;0.73;;;0.68;;
21733;SDS011;11029;47.820;10.534;2023-12-28T00:32:28;0.50;;;0.50;;
21733;SDS011;11029;47.820;10.534;2023-12-28T00:35:13;0.70;;;0.60;;
21733;SDS011;11029;47.820;10.534;2023-12-28T00:38:03;0.80;;;0.73;;
21733;SDS011;11029;47.820;10.534;2023-12-28T00:40:48;0.60;;;0.60;;
21733;SDS011;11029;47.820;10.534;2023-12-28T00:43:33;1.15;;;0.70;;
21733;SDS011;11029;47.820;10.534;2023-12-28T00:46:19;0.80;;;0.70;;
21733;SDS011;11029;47.820;10.534;2023-12-28T00:49:04;1.00;;;0.73;;
21733;SDS011;11029;47.820;10.534;2023-12-28T00:51:51;0.60;;;0.60;;
21733;SDS011;11029;47.820;10.534;2023-12-28T00:54:41;0.77;;;0.70;;
21733;SDS011;11029;47.820;10.534;2023-12-28T01:00:40;0.82;;;0.70;;
21733;SDS011;11029;47.820;10.534;2023-12-28T01:03:25;0.73;;;0.70;;
21733;SDS011;11029;47.820;10.534;2023-12-28T01:06:11;0.98;;;0.85;;
21733;SDS011;11029;47.820;10.534;2023-12-28T01:08:57;0.70;;;0.70;;
21733;SDS011;11029;47.820;10.534;2023-12-28T01:11:43;0.93;;;0.73;;
21733;SDS011;11029;47.820;10.534;2023-12-28T01:14:29;0.98;;;0.77;;
21733;SDS011;11029;47.820;10.534;2023-12-28T01:17:14;1.08;;;0.70;;
21733;SDS011;11029;47.820;10.534;2023-12-28T01:20:00;1.00;;;1.00;;
21733;SDS011;11029;47.820;10.534;2023-12-28T01:22:46;1.00;;;0.88;;
21733;SDS011;11029;47.820;10.534;2023-12-28T01:25:32;1.45;;;0.80;;
21733;SDS011;11029;47.820;10.534;2023-12-28T01:28:18;1.20;;;1.10;;
21733;SDS011;11029;47.820;10.534;2023-12-28T01:31:04;1.08;;;0.98;;
21733;SDS011;11029;47.820;10.534;2023-12-28T01:33:49;1.30;;;1.00;;
21733;SDS011;11029;47.820;10.534;2023-12-28T01:36:35;1.00;;;0.70;;
21733;SDS011;11029;47.820;10.534;2023-12-28T01:39:21;4.80;;;0.98;;
21733;SDS011;11029;47.820;10.534;2023-12-28T01:42:07;1.55;;;1.10;;
21733;SDS011;11029;47.820;10.534;2023-12-28T01:44:52;2.95;;;0.88;;
21733;SDS011;11029;47.820;10.534;2023-12-28T01:47:38;1.23;;;0.85;;
21733;SDS011;11029;47.820;10.534;2023-12-28T01:50:25;1.27;;;0.70;;
21733;SDS011;11029;47.820;10.534;2023-12-28T01:53:12;0.93;;;0.88;;
21733;SDS011;11029;47.820;10.534;2023-12-28T01:55:59;0.98;;;0.90;;
21733;SDS011;11029;47.820;10.534;2023-12-28T01:58:45;1.42;;;0.98;;
21733;SDS011;11029;47.820;10.534;2023-12-28T02:01:33;1.33;;;0.95;;
21733;SDS011;11029;47.820;10.534;2023-12-28T02:04:23;0.82;;;0.82;;
21733;SDS011;11029;47.820;10.534;2023-12-28T02:07:13;1.33;;;0.70;;
21733;SDS011;11029;47.820;10.534;2023-12-28T02:09:59;1.58;;;1.08;;
21733;SDS011;11029;47.820;10.534;2023-12-28T02:12:44;1.08;;;0.85;;
21733;SDS011;11029;47.820;10.534;2023-12-28T02:15:30;1.63;;;0.90;;
21733;SDS011;11029;47.820;10.534;2023-12-28T02:18:18;1.08;;;0.90;;
21733;SDS011;11029;47.820;10.534;2023-12-28T02:21:07;1.20;;;0.70;;
21733;SDS011;11029;47.820;10.534;2023-12-28T02:23:55;0.93;;;0.73;;
21733;SDS011;11029;47.820;10.534;2023-12-28T02:26:40;1.27;;;0.93;;
21733;SDS011;11029;47.820;10.534;2023-12-28T02:29:26;1.00;;;0.75;;
21733;SDS011;11029;47.820;10.534;2023-12-28T02:32:19;2.08;;;1.00;;
21733;SDS011;11029;47.820;10.534;2023-12-28T02:35:16;1.15;;;0.90;;
21733;SDS011;11029;47.820;10.534;2023-12-28T02:38:14;1.55;;;1.02;;
21733;SDS011;11029;47.820;10.534;2023-12-28T02:41:00;1.48;;;0.90;;
21733;SDS011;11029;47.820;10.534;2023-12-28T02:43:48;1.58;;;0.80;;
21733;SDS011;11029;47.820;10.534;2023-12-28T02:46:33;0.88;;;0.73;;
21733;SDS011;11029;47.820;10.534;2023-12-28T02:49:19;1.05;;;0.90;;
21733;SDS011;11029;47.820;10.534;2023-12-28T02:52:05;1.95;;;0.80;;
21733;SDS011;11029;47.820;10.534;2023-12-28T02:54:50;0.82;;;0.82;;
21733;SDS011;11029;47.820;10.534;2023-12-28T02:57:37;0.98;;;0.60;;
21733;SDS011;11029;47.820;10.534;2023-12-28T03:00:23;0.60;;;0.60;;
21733;SDS011;11029;47.820;10.534;2023-12-28T03:03:09;1.88;;;0.60;;
21733;SDS011;11029;47.820;10.534;2023-12-28T03:05:55;0.93;;;0.63;;
21733;SDS011;11029;47.820;10.534;2023-12-28T03:08:42;0.52;;;0.50;;
21733;SDS011;11029;47.820;10.534;2023-12-28T03:11:28;0.63;;;0.50;;
21733;SDS011;11029;47.820;10.534;2023-12-28T03:14:13;0.52;;;0.45;;
21733;SDS011;11029;47.820;10.534;2023-12-28T03:16:59;0.63;;;0.50;;
21733;SDS011;11029;47.820;10.534;2023-12-28T03:19:46;0.70;;;0.50;;
21733;SDS011;11029;47.820;10.534;2023-12-28T03:22:32;0.70;;;0.45;;
21733;SDS011;11029;47.820;10.534;2023-12-28T03:25:18;0.55;;;0.55;;
21733;SDS011;11029;47.820;10.534;2023-12-28T03:28:03;2.33;;;0.52;;
21733;SDS011;11029;47.820;10.534;2023-12-28T03:30:49;0.50;;;0.50;;
21733;SDS011;11029;47.820;10.534;2023-12-28T03:33:34;1.00;;;0.50;;
21733;SDS011;11029;47.820;10.534;2023-12-28T03:36:20;0.52;;;0.50;;
21733;SDS011;11029;47.820;10.534;2023-12-28T03:39:06;0.45;;;0.45;;
21733;SDS011;11029;47.820;10.534;2023-12-28T03:41:52;0.50;;;0.50;;
21733;SDS011;11029;47.820;10.534;2023-12-28T03:44:38;0.40;;;0.40;;
21733;SDS011;11029;47.820;10.534;2023-12-28T03:47:24;1.48;;;0.60;;
21733;SDS011;11029;47.820;10.534;2023-12-28T03:50:10;0.70;;;0.50;;
21733;SDS011;11029;47.820;10.534;2023-12-28T03:52:56;0.50;;;0.50;;
21733;SDS011;11029;47.820;10.534;2023-12-28T03:55:43;0.98;;;0.60;;
21733;SDS011;11029;47.820;10.534;2023-12-28T03:58:29;0.82;;;0.60;;
21733;SDS011;11029;47.820;10.534;2023-12-28T04:01:15;0.50;;;0.50;;
21733;SDS011;11029;47.820;10.534;2023-12-28T04:04:03;0.70;;;0.60;;
21733;SDS011;11029;47.820;10.534;2023-12-28T04:06:50;1.05;;;0.65;;
21733;SDS011;11029;47.820;10.534;2023-12-28T04:09:36;0.60;;;0.60;;
21733;SDS011;11029;47.820;10.534;2023-12-28T04:12:21;0.50;;;0.50;;
21733;SDS011;11029;47.820;10.534;2023-12-28T04:15:08;0.63;;;0.60;;
21733;SDS011;11029;47.820;10.534;2023-12-28T04:17:54;0.57;;;0.57;;
21733;SDS011;11029;47.820;10.534;2023-12-28T04:20:42;1.75;;;0.70;;
21733;SDS011;11029;47.820;10.534;2023-12-28T04:23:31;0.98;;;0.68;;
21733;SDS011;11029;47.820;10.534;2023-12-28T04:26:18;1.70;;;0.70;;
21733;SDS011;11029;47.820;10.534;2023-12-28T04:29:05;1.08;;;0.60;;
21733;SDS011;11029;47.820;10.534;2023-12-28T04:31:52;0.52;;;0.50;;
21733;SDS011;11029;47.820;10.534;2023-12-28T04:34:38;0.73;;;0.70;;
21733;SDS011;11029;47.820;10.534;2023-12-28T04:37:24;1.40;;;0.60;;
21733;SDS011;11029;47.820;10.534;2023-12-28T04:40:13;0.60;;;0.60;;
21733;SDS011;11029;47.820;10.534;2023-12-28T04:42:59;0.60;;;0.55;;
21733;SDS011;11029;47.820;10.534;2023-12-28T04:53:30;0.90;;;0.60;;
21733;SDS011;11029;47.820;10.534;2023-12-28T04:59:27;0.50;;;0.50;;
21733;SDS011;11029;47.820;10.534;2023-12-28T05:02:13;1.08;;;0.70;;
21733;SDS011;11029;47.820;10.534;2023-12-28T05:04:58;0.85;;;0.85;;
21733;SDS011;11029;47.820;10.534;2023-12-28T05:07:44;1.52;;;1.17;;
21733;SDS011;11029;47.820;10.534;2023-12-28T05:10:30;12.55;;;6.65;;
21733;SDS011;11029;47.820;10.534;2023-12-28T05:13:16;6.07;;;3.60;;
21733;SDS011;11029;47.820;10.534;2023-12-28T05:16:03;3.25;;;1.88;;
21733;SDS011;11029;47.820;10.534;2023-12-28T05:18:49;1.45;;;1.15;;
21733;SDS011;11029;47.820;10.534;2023-12-28T05:21:34;1.05;;;0.80;;
21733;SDS011;11029;47.820;10.534;2023-12-28T05:24:20;0.73;;;0.70;;
21733;SDS011;11029;47.820;10.534;2023-12-28T05:27:06;0.77;;;0.60;;
21733;SDS011;11029;47.820;10.534;2023-12-28T05:29:51;1.63;;;0.60;;
21733;SDS011;11029;47.820;10.534;2023-12-28T05:32:37;1.75;;;0.60;;
21733;SDS011;11029;47.820;10.534;2023-12-28T05:35:22;0.50;;;0.50;;
21733;SDS011;11029;47.820;10.534;2023-12-28T05:38:07;0.93;;;0.75;;
21733;SDS011;11029;47.820;10.534;2023-12-28T05:40:53;1.20;;;0.60;;
21733;SDS011;11029;47.820;10.534;2023-12-28T05:43:39;0.60;;;0.60;;
21733;SDS011;11029;47.820;10.534;2023-12-28T05:46:29;1.25;;;0.55;;
21733;SDS011;11029;47.820;10.534;2023-12-28T05:49:14;0.70;;;0.60;;
21733;SDS011;11029;47.820;10.534;2023-12-28T05:52:00;1.77;;;0.63;;
21733;SDS011;11029;47.820;10.534;2023-12-28T05:54:46;0.60;;;0.50;;
21733;SDS011;11029;47.820;10.534;2023-12-28T05:57:33;0.40;;;0.40;;
21733;SDS011;11029;47.820;10.534;2023-12-28T06:00:18;0.90;;;0.50;;
21733;SDS011;11029;47.820;10.534;2023-12-28T06:03:07;0.75;;;0.50;;
21733;SDS011;11029;47.820;10.534;2023-12-28T06:05:53;0.90;;;0.60;;
21733;SDS011;11029;47.820;10.534;2023-12-28T06:08:40;0.63;;;0.50;;
21733;SDS011;11029;47.820;10.534;2023-12-28T06:11:26;1.63;;;0.50;;
21733;SDS011;11029;47.820;10.534;2023-12-28T06:14:11;1.20;;;0.90;;
21733;SDS011;11029;47.820;10.534;2023-12-28T06:16:57;0.65;;;0.52;;
21733;SDS011;11029;47.820;10.534;2023-12-28T06:19:43;0.85;;;0.70;;
21733;SDS011;11029;47.820;10.534;2023-12-28T06:22:29;0.40;;;0.40;;
21733;SDS011;11029;47.820;10.534;2023-12-28T06:25:15;0.95;;;0.57;;
21733;SDS011;11029;47.820;10.534;2023-12-28T06:28:00;1.30;;;0.47;;
21733;SDS011;11029;47.820;10.534;2023-12-28T06:34:04;0.90;;;0.60;;
21733;SDS011;11029;47.820;10.534;2023-12-28T06:36:56;0.45;;;0.45;;
21733;SDS011;11029;47.820;10.534;2023-12-28T06:39:41;0.47;;;0.47;;
21733;SDS011;11029;47.820;10.534;2023-12-28T06:42:28;0.47;;;0.40;;
21733;SDS011;11029;47.820;10.534;2023-12-28T06:45:14;0.55;;;0.55;;
21733;SDS011;11029;47.820;10.534;2023-12-28T06:48:00;1.75;;;1.60;;
21733;SDS011;11029;47.820;10.534;2023-12-28T06:50:46;2.05;;;0.70;;
21733;SDS011;11029;47.820;10.534;2023-12-28T06:53:31;0.60;;;0.60;;
21733;SDS011;11029;47.820;10.534;2023-12-28T06:56:18;0.90;;;0.60;;
21733;SDS011;11029;47.820;10.534;2023-12-28T06:59:03;0.63;;;0.50;;
21733;SDS011;11029;47.820;10.534;2023-12-28T07:01:49;2.85;;;0.50;;
21733;SDS011;11029;47.820;10.534;2023-12-28T07:04:37;0.60;;;0.50;;
21733;SDS011;11029;47.820;10.534;2023-12-28T07:07:23;0.85;;;0.70;;
21733;SDS011;11029;47.820;10.534;2023-12-28T07:10:08;0.95;;;0.65;;
21733;SDS011;11029;47.820;10.534;2023-12-28T07:12:54;6.10;;;3.22;;
21733;SDS011;11029;47.820;10.534;2023-12-28T07:15:39;5.50;;;2.78;;
21733;SDS011;11029;47.820;10.534;2023-12-28T07:18:26;2.63;;;1.60;;
21733;SDS011;11029;47.820;10.534;2023-12-28T07:21:11;1.48;;;0.70;;
21733;SDS011;11029;47.820;10.534;2023-12-28T07:23:58;1.55;;;1.10;;
21733;SDS011;11029;47.820;10.534;2023-12-28T07:26:44;1.13;;;0.95;;
21733;SDS011;11029;47.820;10.534;2023-12-28T07:29:29;1.13;;;0.98;;
21733;SDS011;11029;47.820;10.534;2023-12-28T07:32:15;1.98;;;1.80;;
21733;SDS011;11029;47.820;10.534;2023-12-28T07:35:01;1.63;;;1.52;;
21733;SDS011;11029;47.820;10.534;2023-12-28T07:37:47;2.42;;;1.80;;
21733;SDS011;11029;47.820;10.534;2023-12-28T07:40:34;2.58;;;1.00;;
21733;SDS011;11029;47.820;10.534;2023-12-28T07:43:19;0.75;;;0.70;;
21733;SDS011;11029;47.820;10.534;2023-12-28T07:46:05;1.80;;;0.90;;
21733;SDS011;11029;47.820;10.534;2023-12-28T07:48:50;0.60;;;0.50;;
21733;SDS011;11029;47.820;10.534;2023-12-28T07:51:36;0.55;;;0.50;;
21733;SDS011;11029;47.820;10.534;2023-12-28T07:54:22;1.17;;;0.75;;
21733;SDS011;11029;47.820;10.534;2023-12-28T07:57:08;0.60;;;0.60;;
21733;SDS011;11029;47.820;10.534;2023-12-28T07:59:54;3.22;;;1.88;;
21733;SDS011;11029;47.820;10.534;2023-12-28T08:02:40;27.08;;;11.63;;
21733;SDS011;11029;47.820;10.534;2023-12-28T08:05:29;9.85;;;4.25;;
21733;SDS011;11029;47.820;10.534;2023-12-28T08:08:15;4.72;;;3.25;;
21733;SDS011;11029;47.820;10.534;2023-12-28T08:11:04;3.17;;;2.30;;
21733;SDS011;11029;47.820;10.534;2023-12-28T08:13:51;1.70;;;1.50;;
21733;SDS011;11029;47.820;10.534;2023-12-28T08:16:36;2.05;;;1.77;;
21733;SDS011;11029;47.820;10.534;2023-12-28T08:19:22;3.40;;;1.52;;
21733;SDS011;11029;47.820;10.534;2023-12-28T08:22:07;0.82;;;0.82;;
21733;SDS011;11029;47.820;10.534;2023-12-28T08:24:54;3.60;;;0.68;;
21733;SDS011;11029;47.820;10.534;2023-12-28T08:27:40;0.80;;;0.80;;
21733;SDS011;11029;47.820;10.534;2023-12-28T08:30:26;0.60;;;0.60;;
21733;SDS011;11029;47.820;10.534;2023-12-28T08:33:14;0.73;;;0.50;;
21733;SDS011;11029;47.820;10.534;2023-12-28T08:36:00;1.60;;;0.93;;
21733;SDS011;11029;47.820;10.534;2023-12-28T08:38:47;0.65;;;0.47;;
21733;SDS011;11029;47.820;10.534;2023-12-28T08:41:33;1.10;;;0.50;;
21733;SDS011;11029;47.820;10.534;2023-12-28T08:44:19;0.30;;;0.30;;
21733;SDS011;11029;47.820;10.534;2023-12-28T08:47:04;0.50;;;0.50;;
21733;SDS011;11029;47.820;10.534;2023-12-28T08:49:50;0.40;;;0.40;;
21733;SDS011;11029;47.820;10.534;2023-12-28T08:52:36;0.60;;;0.60;;
21733;SDS011;11029;47.820;10.534;2023-12-28T08:55:21;0.50;;;0.50;;
21733;SDS011;11029;47.820;10.534;2023-12-28T08:58:07;1.00;;;0.93;;
21733;SDS011;11029;47.820;10.534;2023-12-28T09:00:53;1.10;;;0.98;;
21733;SDS011;11029;47.820;10.534;2023-12-28T09:03:39;1.70;;;1.48;;
21733;SDS011;11029;47.820;10.534;2023-12-28T09:06:25;1.75;;;1.63;;
21733;SDS011;11029;47.820;10.534;2023-12-28T09:09:10;3.50;;;1.90;;
21733;SDS011;11029;47.820;10.534;2023-12-28T09:11:56;5.43;;;2.67;;
21733;SDS011;11029;47.820;10.534;2023-12-28T09:14:41;2.45;;;1.55;;
21733;SDS011;11029;47.820;10.534;2023-12-28T09:17:27;4.28;;;2.00;;
21733;SDS011;11029;47.820;10.534;2023-12-28T09:20:13;4.00;;;1.90;;
21733;SDS011;11029;47.820;10.534;2023-12-28T09:22:58;6.38;;;2.80;;
21733;SDS011;11029;47.820;10.534;2023-12-28T09:25:44;5.65;;;2.80;;
21733;SDS011;11029;47.820;10.534;2023-12-28T09:28:31;9.48;;;4.85;;
21733;SDS011;11029;47.820;10.534;2023-12-28T09:31:17;12.05;;;7.18;;
21733;SDS011;11029;47.820;10.534;2023-12-28T09:37:16;11.45;;;3.45;;
21733;SDS011;11029;47.820;10.534;2023-12-28T09:40:02;5.03;;;2.20;;
21733;SDS011;11029;47.820;10.534;2023-12-28T09:42:51;5.28;;;2.00;;
21733;SDS011;11029;47.820;10.534;2023-12-28T09:45:47;3.17;;;1.20;;
21733;SDS011;11029;47.820;10.534;2023-12-28T09:48:35;0.60;;;0.60;;
21733;SDS011;11029;47.820;10.534;2023-12-28T09:51:24;2.45;;;0.95;;
21733;SDS011;11029;47.820;10.534;2023-12-28T09:54:11;0.70;;;0.70;;
21733;SDS011;11029;47.820;10.534;2023-12-28T09:56:56;0.65;;;0.60;;
21733;SDS011;11029;47.820;10.534;2023-12-28T09:59:42;1.02;;;0.93;;
21733;SDS011;11029;47.820;10.534;2023-12-28T10:02:29;0.70;;;0.70;;
21733;SDS011;11029;47.820;10.534;2023-12-28T10:05:19;0.77;;;0.70;;
21733;SDS011;11029;47.820;10.534;2023-12-28T10:08:05;0.63;;;0.63;;
21733;SDS011;11029;47.820;10.534;2023-12-28T10:10:51;0.52;;;0.50;;
21733;SDS011;11029;47.820;10.534;2023-12-28T10:13:39;0.90;;;0.80;;
21733;SDS011;11029;47.820;10.534;2023-12-28T10:16:25;3.00;;;1.38;;
21733;SDS011;11029;47.820;10.534;2023-12-28T10:22:24;2.08;;;0.60;;
21733;SDS011;11029;47.820;10.534;2023-12-28T10:25:10;0.88;;;0.70;;
21733;SDS011;11029;47.820;10.534;2023-12-28T10:27:57;0.70;;;0.70;;
21733;SDS011;11029;47.820;10.534;2023-12-28T10:30:49;2.08;;;1.13;;
21733;SDS011;11029;47.820;10.534;2023-12-28T10:33:42;0.40;;;0.40;;
21733;SDS011;11029;47.820;10.534;2023-12-28T10:36:31;0.60;;;0.60;;
21733;SDS011;11029;47.820;10.534;2023-12-28T10:39:19;2.65;;;0.63;;
21733;SDS011;11029;47.820;10.534;2023-12-28T10:42:07;0.75;;;0.50;;
21733;SDS011;11029;47.820;10.534;2023-12-28T10:45:04;0.60;;;0.60;;
21733;SDS011;11029;47.820;10.534;2023-12-28T10:47:54;0.60;;;0.60;;
21733;SDS011;11029;47.820;10.534;2023-12-28T10:51:00;1.05;;;0.77;;
21733;SDS011;11029;47.820;10.534;2023-12-28T10:53:50;1.00;;;0.70;;
21733;SDS011;11029;47.820;10.534;2023-12-28T10:56:45;0.60;;;0.60;;
21733;SDS011;11029;47.820;10.534;2023-12-28T11:02:56;0.80;;;0.80;;
21733;SDS011;11029;47.820;10.534;2023-12-28T11:05:49;0.88;;;0.60;;
21733;SDS011;11029;47.820;10.534;2023-12-28T11:08:35;0.60;;;0.60;;
21733;SDS011;11029;47.820;10.534;2023-12-28T11:11:26;0.60;;;0.60;;
21733;SDS011;11029;47.820;10.534;2023-12-28T11:14:12;0.80;;;0.65;;
21733;SDS011;11029;47.820;10.534;2023-12-28T11:16:59;0.93;;;0.75;;
21733;SDS011;11029;47.820;10.534;2023-12-28T11:19:46;1.88;;;0.90;;
21733;SDS011;11029;47.820;10.534;2023-12-28T11:22:32;2.17;;;0.80;;
21733;SDS011;11029;47.820;10.534;2023-12-28T11:25:19;1.33;;;0.68;;
21733;SDS011;11029;47.820;10.534;2023-12-28T11:28:08;2.83;;;0.80;;
21733;SDS011;11029;47.820;10.534;2023-12-28T11:30:57;2.17;;;0.70;;
21733;SDS011;11029;47.820;10.534;2023-12-28T11:33:46;1.17;;;0.60;;
21733;SDS011;11029;47.820;10.534;2023-12-28T11:36:40;0.60;;;0.60;;
21733;SDS011;11029;47.820;10.534;2023-12-28T11:39:35;1.08;;;0.70;;
21733;SDS011;11029;47.820;10.534;2023-12-28T11:42:23;1.05;;;0.65;;
21733;SDS011;11029;47.820;10.534;2023-12-28T11:45:10;1.88;;;0.60;;
21733;SDS011;11029;47.820;10.534;2023-12-28T11:47:59;0.52;;;0.50;;
21733;SDS011;11029;47.820;10.534;2023-12-28T11:50:46;0.50;;;0.50;;
21733;SDS011;11029;47.820;10.534;2023-12-28T11:53:32;0.63;;;0.60;;
21733;SDS011;11029;47.820;10.534;2023-12-28T11:56:17;0.85;;;0.60;;
21733;SDS011;11029;47.820;10.534;2023-12-28T11:59:04;3.17;;;0.63;;
21733;SDS011;11029;47.820;10.534;2023-12-28T12:01:52;0.52;;;0.52;;
21733;SDS011;11029;47.820;10.534;2023-12-28T12:04:38;0.65;;;0.63;;
21733;SDS011;11029;47.820;10.534;2023-12-28T12:07:25;1.25;;;0.80;;
21733;SDS011;11029;47.820;10.534;2023-12-28T12:10:14;0.68;;;0.52;;
21733;SDS011;11029;47.820;10.534;2023-12-28T12:13:00;0.80;;;0.73;;
21733;SDS011;11029;47.820;10.534;2023-12-28T12:15:50;0.57;;;0.55;;
21733;SDS011;11029;47.820;10.534;2023-12-28T12:18:41;0.77;;;0.77;;
21733;SDS011;11029;47.820;10.534;2023-12-28T12:21:27;1.17;;;0.70;;
21733;SDS011;11029;47.820;10.534;2023-12-28T12:24:13;1.10;;;0.70;;
21733;SDS011;11029;47.820;10.534;2023-12-28T12:26:58;0.80;;;0.80;;
21733;SDS011;11029;47.820;10.534;2023-12-28T12:29:47;0.68;;;0.65;;
21733;SDS011;11029;47.820;10.534;2023-12-28T12:32:32;0.70;;;0.70;;
21733;SDS011;11029;47.820;10.534;2023-12-28T12:35:22;1.50;;;0.82;;
21733;SDS011;11029;47.820;10.534;2023-12-28T12:38:07;0.90;;;0.90;;
21733;SDS011;11029;47.820;10.534;2023-12-28T12:40:53;1.23;;;0.70;;
21733;SDS011;11029;47.820;10.534;2023-12-28T12:43:39;1.13;;;1.02;;
21733;SDS011;11029;47.820;10.534;2023-12-28T12:46:26;1.13;;;0.73;;
21733;SDS011;11029;47.820;10.534;2023-12-28T12:49:12;0.60;;;0.60;;
21733;SDS011;11029;47.820;10.534;2023-12-28T12:51:58;1.20;;;0.73;;
21733;SDS011;11029;47.820;10.534;2023-12-28T12:54:57;8.27;;;1.20;;
21733;SDS011;11029;47.820;10.534;2023-12-28T12:57:44;2.67;;;1.20;;
21733;SDS011;11029;47.820;10.534;2023-12-28T13:00:30;1.70;;;0.90;;
21733;SDS011;11029;47.820;10.534;2023-12-28T13:03:16;1.02;;;0.85;;
21733;SDS011;11029;47.820;10.534;2023-12-28T13:06:02;1.50;;;1.23;;
21733;SDS011;11029;47.820;10.534;2023-12-28T13:08:49;2.72;;;1.25;;
21733;SDS011;11029;47.820;10.534;2023-12-28T13:11:35;2.83;;;1.42;;
21733;SDS011;11029;47.820;10.534;2023-12-28T13:14:21;3.58;;;1.10;;
21733;SDS011;11029;47.820;10.534;2023-12-28T13:17:06;0.75;;;0.75;;
21733;SDS011;11029;47.820;10.534;2023-12-28T13:19:52;0.95;;;0.90;;
21733;SDS011;11029;47.820;10.534;2023-12-28T13:22:37;1.77;;;0.60;;
21733;SDS011;11029;47.820;10.534;2023-12-28T13:25:23;1.33;;;0.60;;
21733;SDS011;11029;47.820;10.534;2023-12-28T13:28:08;0.80;;;0.70;;
21733;SDS011;11029;47.820;10.534;2023-12-28T13:30:54;3.55;;;0.70;;
21733;SDS011;11029;47.820;10.534;2023-12-28T13:33:41;0.63;;;0.63;;
21733;SDS011;11029;47.820;10.534;2023-12-28T13:36:27;1.10;;;0.70;;
21733;SDS011;11029;47.820;10.534;2023-12-28T13:39:14;0.70;;;0.60;;
21733;SDS011;11029;47.820;10.534;2023-12-28T13:42:00;0.82;;;0.70;;
21733;SDS011;11029;47.820;10.534;2023-12-28T13:44:46;0.95;;;0.80;;
21733;SDS011;11029;47.820;10.534;2023-12-28T13:47:31;1.20;;;0.80;;
21733;SDS011;11029;47.820;10.534;2023-12-28T13:50:17;1.25;;;0.60;;
21733;SDS011;11029;47.820;10.534;2023-12-28T13:53:04;0.70;;;0.60;;
21733;SDS011;11029;47.820;10.534;2023-12-28T13:55:52;1.10;;;0.77;;
21733;SDS011;11029;47.820;10.534;2023-12-28T13:58:38;2.22;;;0.80;;
21733;SDS011;11029;47.820;10.534;2023-12-28T14:01:23;0.85;;;0.70;;
21733;SDS011;11029;47.820;10.534;2023-12-28T14:04:09;1.70;;;0.80;;
21733;SDS011;11029;47.820;10.534;2023-12-28T14:06:55;1.00;;;0.80;;
21733;SDS011;11029;47.820;10.534;2023-12-28T14:09:41;1.33;;;1.00;;
21733;SDS011;11029;47.820;10.534;2023-12-28T14:12:27;0.98;;;0.88;;
21733;SDS011;11029;47.820;10.534;2023-12-28T14:15:13;3.42;;;1.15;;
21733;SDS011;11029;47.820;10.534;2023-12-28T14:18:00;3.42;;;1.02;;
21733;SDS011;11029;47.820;10.534;2023-12-28T14:20:50;2.00;;;1.60;;
21733;SDS011;11029;47.820;10.534;2023-12-28T14:23:35;2.95;;;1.17;;
21733;SDS011;11029;47.820;10.534;2023-12-28T14:26:21;1.63;;;1.48;;
21733;SDS011;11029;47.820;10.534;2023-12-28T14:29:07;2.78;;;1.27;;
21733;SDS011;11029;47.820;10.534;2023-12-28T14:31:53;1.17;;;1.08;;
21733;SDS011;11029;47.820;10.534;2023-12-28T14:34:39;2.33;;;1.60;;
21733;SDS011;11029;47.820;10.534;2023-12-28T14:37:25;2.35;;;1.10;;
21733;SDS011;11029;47.820;10.534;2023-12-28T14:40:10;1.05;;;0.95;;
21733;SDS011;11029;47.820;10.534;2023-12-28T14:42:56;1.15;;;0.90;;
21733;SDS011;11029;47.820;10.534;2023-12-28T14:45:42;2.75;;;1.52;;
21733;SDS011;11029;47.820;10.534;2023-12-28T14:48:28;1.95;;;1.10;;
21733;SDS011;11029;47.820;10.534;2023-12-28T14:51:14;2.03;;;1.40;;
21733;SDS011;11029;47.820;10.534;2023-12-28T14:53:59;2.72;;;1.90;;
21733;SDS011;11029;47.820;10.534;2023-12-28T14:56:44;4.70;;;2.13;;
21733;SDS011;11029;47.820;10.534;2023-12-28T14:59:39;1.00;;;0.90;;
21733;SDS011;11029;47.820;10.534;2023-12-28T15:02:24;2.35;;;0.90;;
21733;SDS011;11029;47.820;10.534;2023-12-28T15:05:10;3.47;;;1.10;;
21733;SDS011;11029;47.820;10.534;2023-12-28T15:07:57;1.30;;;1.00;;
21733;SDS011;11029;47.820;10.534;2023-12-28T15:10:44;3.75;;;1.42;;
21733;SDS011;11029;47.820;10.534;2023-12-28T15:13:33;2.80;;;1.63;;
21733;SDS011;11029;47.820;10.534;2023-12-28T15:16:19;4.63;;;2.50;;
21733;SDS011;11029;47.820;10.534;2023-12-28T15:19:05;3.70;;;1.48;;
21733;SDS011;11029;47.820;10.534;2023-12-28T15:21:52;2.85;;;1.95;;
21733;SDS011;11029;47.820;10.534;2023-12-28T15:24:38;1.73;;;1.52;;
21733;SDS011;11029;47.820;10.534;2023-12-28T15:27:24;5.72;;;2.50;;
21733;SDS011;11029;47.820;10.534;2023-12-28T15:30:10;8.18;;;4.78;;
21733;SDS011;11029;47.820;10.534;2023-12-28T15:32:56;4.20;;;2.80;;
21733;SDS011;11029;47.820;10.534;2023-12-28T15:35:42;3.15;;;2.05;;
21733;SDS011;11029;47.820;10.534;2023-12-28T15:38:28;3.28;;;2.15;;
21733;SDS011;11029;47.820;10.534;2023-12-28T15:41:14;3.92;;;2.30;;
21733;SDS011;11029;47.820;10.534;2023-12-28T15:43:59;4.53;;;2.90;;
21733;SDS011;11029;47.820;10.534;2023-12-28T15:46:45;4.80;;;3.78;;
21733;SDS011;11029;47.820;10.534;2023-12-28T15:49:30;9.00;;;6.93;;
21733;SDS011;11029;47.820;10.534;2023-12-28T15:52:15;14.15;;;8.32;;
21733;SDS011;11029;47.820;10.534;2023-12-28T15:55:01;12.43;;;6.95;;
21733;SDS011;11029;47.820;10.534;2023-12-28T15:57:47;10.90;;;7.40;;
21733;SDS011;11029;47.820;10.534;2023-12-28T16:00:35;12.77;;;7.00;;
21733;SDS011;11029;47.820;10.534;2023-12-28T16:03:21;7.57;;;5.57;;
21733;SDS011;11029;47.820;10.534;2023-12-28T16:06:09;7.68;;;5.50;;
21733;SDS011;11029;47.820;10.534;2023-12-28T16:08:56;9.20;;;6.20;;
21733;SDS011;11029;47.820;10.534;2023-12-28T16:11:41;8.07;;;5.28;;
21733;SDS011;11029;47.820;10.534;2023-12-28T16:14:27;8.45;;;5.22;;
21733;SDS011;11029;47.820;10.534;2023-12-28T16:17:12;8.15;;;5.07;;
21733;SDS011;11029;47.820;10.534;2023-12-28T16:19:58;12.57;;;6.78;;
21733;SDS011;11029;47.820;10.534;2023-12-28T16:22:44;12.48;;;7.03;;
21733;SDS011;11029;47.820;10.534;2023-12-28T16:25:30;19.80;;;10.85;;
21733;SDS011;11029;47.820;10.534;2023-12-28T16:28:15;31.40;;;15.40;;
21733;SDS011;11029;47.820;10.534;2023-12-28T16:31:02;31.08;;;15.88;;
21733;SDS011;11029;47.820;10.534;2023-12-28T16:33:48;39.40;;;20.52;;
21733;SDS011;11029;47.820;10.534;2023-12-28T16:36:34;40.42;;;19.50;;
21733;SDS011;11029;47.820;10.534;2023-12-28T16:39:20;39.75;;;18.85;;
21733;SDS011;11029;47.820;10.534;2023-12-28T16:42:05;42.80;;;19.67;;
21733;SDS011;11029;47.820;10.534;2023-12-28T16:44:51;31.98;;;17.35;;
21733;SDS011;11029;47.820;10.534;2023-12-28T16:47:37;33.22;;;16.77;;
21733;SDS011;11029;47.820;10.534;2023-12-28T16:50:27;33.90;;;17.23;;
21733;SDS011;11029;47.820;10.534;2023-12-28T16:53:13;27.73;;;13.65;;
21733;SDS011;11029;47.820;10.534;2023-12-28T16:55:58;35.78;;;17.38;;
21733;SDS011;11029;47.820;10.534;2023-12-28T16:58:44;33.85;;;17.05;;